Lavon, Texas
Current Conditions -  °F | °C
As of 1:15 PM on Monday 22 Dec 2014 (Local Time) from KF46 Reporting Station
Clear Clear  
Wind Chill: 66°   Ceiling: Unl
Heat Index: 66°   Visibility: 10mi
Dew Point: 45°   Wind: 14mph
Humidity: 46%   Direction: 250°WSW
Pressure: 29.55"   Gusts: NA
Location:  33.03°N, 96.43°W
Report Text: KF46 221915Z AUTO 25012KT 10SM CLR 19/07 A2955 RMK AO2 T01890070
Loading
Personal Weather Stations






























Interactive Weather Map New forecast layout! Learn more

10-Day Weather Forecast

Advertisements
Track Severe Weather on mobile